createdAt,value
2022-09-02T00:01:21.979Z,2.57
2022-09-02T00:03:52.489Z,2.80
2022-09-02T00:06:21.559Z,2.70
2022-09-02T00:08:50.399Z,2.97
2022-09-02T00:11:21.535Z,3.57
2022-09-02T00:13:51.181Z,4.20
2022-09-02T00:16:22.719Z,3.73
2022-09-02T00:18:52.181Z,4.13
2022-09-02T00:21:21.584Z,4.03
2022-09-02T00:23:51.183Z,4.20
2022-09-02T00:26:20.175Z,4.10
2022-09-02T00:28:51.002Z,4.40
2022-09-02T00:31:29.172Z,3.90
2022-09-02T00:33:58.115Z,4.13
2022-09-02T00:36:34.595Z,3.77
2022-09-02T00:39:08.210Z,3.27
2022-09-02T00:41:39.438Z,3.80
2022-09-02T00:44:10.673Z,3.03
2022-09-02T00:46:41.551Z,3.47
2022-09-02T00:49:14.707Z,4.67
2022-09-02T00:51:50.535Z,4.30
2022-09-02T00:56:49.578Z,3.80
2022-09-02T00:59:31.545Z,3.60
2022-09-02T01:02:01.123Z,4.13
2022-09-02T01:04:32.252Z,4.23
2022-09-02T01:07:02.769Z,3.80
2022-09-02T01:09:37.552Z,3.47
2022-09-02T01:12:08.224Z,2.10
2022-09-02T01:14:37.178Z,2.20
2022-09-02T01:17:07.757Z,1.50
2022-09-02T01:19:42.653Z,1.67
2022-09-02T01:22:19.585Z,1.60
2022-09-02T01:24:48.762Z,1.77
2022-09-02T01:27:19.753Z,1.80
2022-09-02T01:29:53.566Z,1.63
2022-09-02T01:34:51.514Z,1.27
2022-09-02T01:37:22.114Z,1.20
2022-09-02T01:39:52.631Z,1.40
2022-09-02T01:42:21.952Z,1.40
2022-09-02T01:44:50.641Z,1.20
2022-09-02T01:47:24.510Z,1.40
2022-09-02T01:49:53.919Z,1.13
2022-09-02T01:52:25.192Z,1.43
2022-09-02T01:54:56.939Z,1.50
2022-09-02T01:57:25.688Z,1.47
2022-09-02T01:59:55.567Z,1.47
2022-09-02T02:02:24.945Z,1.37
2022-09-02T02:04:56.006Z,1.17
2022-09-02T02:07:24.707Z,1.40
2022-09-02T02:09:53.526Z,1.35
2022-09-02T02:12:22.648Z,1.40
2022-09-02T02:14:51.849Z,1.57
2022-09-02T02:17:23.672Z,1.20
2022-09-02T02:19:52.221Z,1.40
2022-09-02T02:22:21.639Z,1.27
2022-09-02T02:24:50.077Z,1.27
2022-09-02T02:27:18.867Z,1.60
2022-09-02T02:29:50.043Z,1.43
2022-09-02T02:32:18.995Z,1.10
2022-09-02T02:34:49.011Z,1.23
2022-09-02T02:37:20.185Z,1.30
2022-09-02T02:39:53.962Z,1.60
2022-09-02T02:42:27.524Z,1.50
2022-09-02T02:44:56.557Z,1.70
2022-09-02T02:47:27.088Z,1.60
2022-09-02T02:49:58.176Z,1.77
2022-09-02T02:52:27.684Z,1.50
2022-09-02T02:54:56.466Z,2.37
2022-09-02T02:57:25.412Z,1.70
2022-09-02T02:59:57.118Z,2.33
2022-09-02T03:02:26.311Z,1.83
2022-09-02T03:04:55.794Z,2.00
2022-09-02T03:07:24.492Z,1.73
2022-09-02T03:09:53.380Z,1.77
2022-09-02T03:12:22.397Z,1.70
2022-09-02T03:14:51.597Z,1.60
2022-09-02T03:17:20.832Z,1.70
2022-09-02T03:19:50.154Z,2.00
2022-09-02T03:22:18.986Z,1.50
2022-09-02T03:24:47.521Z,1.70
2022-09-02T03:27:16.021Z,1.70
2022-09-02T03:29:45.318Z,1.50
2022-09-02T03:32:14.864Z,1.80
2022-09-02T03:34:45.563Z,1.73
2022-09-02T03:37:16.991Z,1.70
2022-09-02T03:39:48.122Z,1.52
2022-09-02T03:42:19.316Z,1.33
2022-09-02T03:44:49.715Z,1.23
2022-09-02T03:47:24.437Z,1.93
2022-09-02T03:49:57.691Z,1.97
2022-09-02T03:52:27.275Z,1.30
2022-09-02T03:54:56.251Z,1.33
2022-09-02T03:57:27.910Z,1.83
2022-09-02T03:59:58.740Z,2.30
2022-09-02T04:02:30.253Z,1.70
2022-09-02T04:04:59.077Z,1.90
2022-09-02T04:07:28.019Z,1.80
2022-09-02T04:09:56.942Z,2.07
2022-09-02T04:12:32.204Z,1.80
2022-09-02T04:15:01.043Z,2.10
2022-09-02T04:17:29.734Z,2.13
2022-09-02T04:19:58.724Z,2.67
2022-09-02T04:22:28.527Z,3.00
2022-09-02T04:24:57.338Z,2.60
2022-09-02T04:27:26.443Z,2.40
2022-09-02T04:29:56.159Z,2.60
2022-09-02T04:32:28.816Z,2.17
2022-09-02T04:34:57.593Z,2.87
2022-09-02T04:37:27.977Z,2.23
2022-09-02T04:39:57.833Z,2.63
2022-09-02T04:42:28.877Z,2.65
2022-09-02T04:44:58.228Z,2.53
2022-09-02T04:47:30.741Z,2.33
2022-09-02T04:49:59.339Z,1.97
2022-09-02T04:52:29.543Z,2.80
2022-09-02T04:54:58.824Z,2.20
2022-09-02T04:57:27.678Z,2.40
2022-09-02T04:59:56.684Z,2.57
2022-09-02T05:02:27.998Z,2.20
2022-09-02T05:04:57.128Z,2.23
2022-09-02T05:07:30.935Z,2.43
2022-09-02T05:10:00.101Z,2.07
2022-09-02T05:12:31.300Z,2.00
2022-09-02T05:15:00.801Z,2.27
2022-09-02T05:17:32.596Z,1.97
2022-09-02T05:20:03.065Z,2.20
2022-09-02T05:22:33.422Z,2.57
2022-09-02T05:25:03.161Z,2.30
2022-09-02T05:27:32.955Z,2.07
2022-09-02T05:30:02.903Z,2.13
2022-09-02T05:32:37.009Z,1.70
2022-09-02T05:35:08.939Z,1.77
2022-09-02T05:37:38.402Z,1.30
2022-09-02T05:40:11.931Z,1.77
2022-09-02T05:42:44.282Z,1.60
2022-09-02T05:45:16.597Z,1.50
2022-09-02T05:47:45.923Z,1.37
2022-09-02T05:50:15.969Z,1.40
2022-09-02T05:52:46.941Z,1.57
2022-09-02T05:55:18.045Z,1.60
2022-09-02T05:57:46.478Z,1.23
2022-09-02T06:00:17.860Z,1.37
2022-09-02T06:02:55.403Z,1.40
2022-09-02T06:05:30.571Z,1.30
2022-09-02T06:08:07.505Z,1.30
2022-09-02T06:10:42.576Z,1.43
2022-09-02T06:13:12.277Z,1.70
2022-09-02T06:15:43.713Z,1.53
2022-09-02T06:18:12.538Z,1.90
2022-09-02T06:20:44.895Z,1.40
2022-09-02T06:23:14.590Z,1.50
2022-09-02T06:25:47.030Z,1.87
2022-09-02T06:28:16.490Z,1.50
2022-09-02T06:30:47.993Z,1.33
2022-09-02T06:33:17.838Z,1.40
2022-09-02T06:35:46.881Z,1.50
2022-09-02T06:38:19.258Z,1.40
2022-09-02T06:40:50.442Z,1.50
2022-09-02T06:43:21.180Z,1.50
2022-09-02T09:46:40.472Z,0.67
2022-09-02T09:49:09.045Z,1.80
2022-09-02T09:51:54.793Z,1.20
2022-09-02T09:54:28.129Z,0.82
2022-09-02T09:59:41.058Z,1.30
2022-09-02T10:04:48.103Z,0.80
2022-09-02T10:07:35.572Z,1.00
2022-09-02T10:10:15.909Z,0.90
2022-09-02T10:12:46.917Z,0.80
2022-09-02T10:15:20.484Z,0.80
2022-09-02T10:20:33.205Z,1.43
2022-09-02T10:23:17.144Z,0.80
2022-09-02T10:25:59.350Z,1.10
2022-09-02T10:28:48.502Z,0.70
2022-09-02T10:31:29.460Z,0.75
2022-09-02T10:34:10.778Z,1.10
2022-09-02T10:36:54.375Z,0.80
2022-09-02T10:39:33.747Z,1.13
2022-09-02T10:42:10.039Z,0.90
2022-09-02T10:44:47.087Z,0.87
2022-09-02T10:47:30.693Z,1.00
2022-09-02T10:50:11.935Z,0.80
2022-09-02T10:52:55.657Z,0.77
2022-09-02T10:55:41.354Z,1.20
2022-09-02T10:58:18.756Z,1.00
2022-09-02T11:00:53.135Z,0.83
2022-09-02T11:03:29.187Z,1.10
2022-09-02T11:06:05.357Z,1.13
2022-09-02T11:08:39.072Z,1.13
2022-09-02T11:11:11.535Z,1.40
2022-09-02T11:13:52.847Z,1.45
2022-09-02T11:16:27.891Z,1.00
2022-09-02T11:19:02.803Z,1.37
2022-09-02T11:21:42.429Z,0.90
2022-09-02T11:24:15.657Z,1.20
2022-09-02T11:26:49.739Z,0.85
2022-09-02T11:29:22.102Z,0.80
2022-09-02T11:32:14.705Z,0.78
2022-09-02T11:34:46.761Z,0.87
2022-09-02T11:37:30.474Z,1.20
2022-09-02T11:40:23.387Z,1.10
2022-09-02T11:43:17.453Z,0.80
2022-09-02T11:46:16.270Z,0.80
2022-09-02T11:49:06.066Z,0.83
2022-09-02T11:51:58.768Z,0.80
2022-09-02T11:54:36.930Z,1.05
2022-09-02T11:57:07.379Z,0.73
2022-09-02T12:00:10.383Z,0.87
2022-09-02T12:02:48.000Z,0.50
2022-09-02T12:05:49.997Z,0.73
2022-09-02T12:08:53.268Z,0.80
2022-09-02T12:11:45.142Z,1.13
2022-09-02T12:14:46.003Z,0.80
2022-09-02T12:17:37.629Z,1.00
2022-09-02T12:20:09.948Z,0.80
2022-09-02T12:22:40.127Z,0.70
2022-09-02T12:25:42.924Z,0.80
2022-09-02T12:28:25.478Z,0.90
2022-09-02T12:31:18.162Z,1.15
2022-09-02T12:33:51.821Z,0.90
2022-09-02T12:36:45.649Z,0.60
2022-09-02T12:39:50.744Z,0.78
2022-09-02T12:42:27.342Z,0.73
2022-09-02T12:45:05.461Z,0.77
2022-09-02T12:47:46.967Z,0.60
2022-09-02T12:50:25.621Z,0.80
2022-09-02T12:53:31.671Z,1.23
2022-09-02T12:56:03.934Z,0.90
2022-09-02T12:58:40.095Z,0.90
2022-09-02T13:01:17.166Z,0.97
2022-09-02T13:04:11.264Z,0.80
2022-09-02T13:07:08.164Z,0.72
2022-09-02T13:10:08.563Z,0.97
2022-09-02T13:13:03.842Z,0.70
2022-09-02T13:15:48.517Z,0.90
2022-09-02T13:18:47.635Z,0.50
2022-09-02T13:21:34.485Z,0.70
2022-09-02T13:24:24.782Z,0.80
2022-09-02T13:27:13.587Z,0.77
2022-09-02T13:30:07.362Z,0.60
2022-09-02T13:32:37.127Z,0.50
2022-09-02T13:35:18.376Z,0.67
2022-09-02T13:38:00.015Z,0.70
2022-09-02T13:40:33.077Z,1.00
2022-09-02T13:43:03.867Z,0.60
2022-09-02T13:45:35.045Z,0.60
2022-09-02T13:48:10.557Z,0.60
2022-09-02T13:50:44.945Z,0.70
2022-09-02T13:53:54.085Z,0.70
2022-09-02T13:56:11.949Z,0.50
2022-09-02T13:58:45.439Z,0.73
2022-09-02T14:01:28.708Z,0.70
2022-09-02T14:04:02.616Z,0.70
2022-09-02T14:06:36.029Z,0.63
2022-09-02T14:09:17.891Z,0.43
2022-09-02T14:11:48.348Z,0.47
2022-09-02T14:14:20.975Z,0.60
2022-09-02T14:16:49.757Z,0.60
2022-09-02T14:19:25.650Z,0.63
2022-09-02T14:21:58.409Z,0.70
2022-09-02T14:24:30.524Z,0.47
2022-09-02T14:27:00.052Z,0.70
2022-09-02T14:29:31.536Z,0.70
2022-09-02T14:32:15.119Z,0.73
2022-09-02T14:37:21.430Z,0.90
2022-09-02T14:40:05.483Z,0.90
2022-09-02T14:42:34.302Z,0.70
2022-09-02T14:45:04.932Z,0.90
2022-09-02T14:47:38.233Z,0.90
2022-09-02T14:50:12.081Z,0.62
2022-09-02T14:52:47.258Z,0.50
2022-09-02T14:55:51.783Z,0.70
2022-09-02T14:58:24.781Z,0.57
2022-09-02T15:00:58.944Z,0.67
2022-09-02T15:03:28.871Z,0.53
2022-09-02T15:05:58.321Z,0.90
2022-09-02T15:08:27.748Z,0.67
2022-09-02T15:11:00.107Z,0.67
2022-09-02T15:13:33.336Z,0.67
2022-09-02T15:16:02.654Z,0.50
2022-09-02T15:18:31.564Z,0.63
2022-09-02T15:21:00.274Z,1.00
2022-09-02T15:23:34.514Z,0.53
2022-09-02T15:26:03.437Z,0.40
2022-09-02T15:28:32.008Z,0.60
2022-09-02T15:31:02.109Z,0.87
2022-09-02T15:33:31.281Z,0.70
2022-09-02T15:36:07.089Z,0.90
2022-09-02T15:38:37.199Z,0.60
2022-09-02T15:41:14.508Z,0.80
2022-09-02T15:43:44.094Z,0.70
2022-09-02T15:46:25.959Z,0.57
2022-09-02T15:49:00.297Z,0.80
2022-09-02T15:51:33.254Z,0.90
2022-09-02T15:54:04.172Z,1.20
2022-09-02T15:56:35.026Z,0.60
2022-09-02T15:59:10.628Z,0.90
2022-09-02T16:01:41.452Z,0.90
2022-09-02T16:04:11.641Z,1.23
2022-09-02T16:06:42.640Z,0.80
2022-09-02T16:09:12.849Z,0.90
2022-09-02T16:11:43.461Z,0.70
2022-09-02T16:14:14.484Z,0.70
2022-09-02T16:16:45.035Z,0.67
2022-09-02T16:19:13.798Z,0.93
2022-09-02T16:21:42.424Z,0.80
2022-09-02T16:24:11.080Z,0.70
2022-09-02T16:26:41.232Z,0.73
2022-09-02T16:29:16.387Z,0.63
2022-09-02T16:32:02.372Z,0.70
2022-09-02T16:34:36.170Z,0.93
2022-09-02T16:37:05.333Z,0.83
2022-09-02T16:39:33.947Z,0.70
2022-09-02T16:42:04.023Z,0.90
2022-09-02T16:44:33.508Z,0.90
2022-09-02T16:47:02.568Z,0.73
2022-09-02T16:49:32.101Z,0.77
2022-09-02T16:52:00.866Z,1.00
2022-09-02T16:54:31.194Z,1.00
2022-09-02T16:57:02.025Z,1.10
2022-09-02T16:59:31.120Z,1.10
2022-09-02T17:02:00.326Z,0.80
2022-09-02T17:04:29.758Z,0.80
2022-09-02T17:06:59.590Z,1.20
2022-09-02T17:09:31.162Z,1.20
2022-09-02T17:12:00.962Z,0.93
2022-09-02T17:14:30.425Z,1.00
2022-09-02T17:16:59.058Z,0.90
2022-09-02T17:19:32.389Z,1.30
2022-09-02T17:22:01.499Z,1.55
2022-09-02T17:24:31.098Z,2.17
2022-09-02T17:27:01.615Z,2.30
2022-09-02T17:32:20.591Z,2.90
2022-09-02T17:34:50.749Z,2.47
2022-09-02T17:37:19.270Z,2.63
2022-09-02T17:39:49.732Z,2.43
2022-09-02T17:42:19.585Z,2.20
2022-09-02T17:44:48.239Z,2.10
2022-09-02T17:47:19.390Z,2.20
2022-09-02T17:49:49.473Z,2.23
2022-09-02T17:52:23.466Z,2.03
2022-09-02T17:54:53.241Z,1.97
2022-09-02T17:57:29.800Z,1.87
2022-09-02T18:00:07.384Z,2.23
2022-09-02T18:03:13.278Z,1.97
2022-09-02T18:06:09.924Z,1.90
2022-09-02T18:08:48.625Z,2.03
2022-09-02T18:11:18.275Z,2.20
2022-09-02T18:13:57.286Z,1.90
2022-09-02T18:16:33.977Z,1.77
2022-09-02T18:19:13.149Z,2.57
2022-09-02T18:22:05.354Z,1.53
2022-09-02T18:24:51.402Z,1.80
2022-09-02T18:27:32.638Z,1.33
2022-09-02T18:30:08.077Z,1.90
2022-09-02T18:32:54.666Z,1.60
2022-09-02T18:35:34.412Z,1.80
2022-09-02T18:38:13.743Z,1.60
2022-09-02T18:40:51.940Z,1.60
2022-09-02T18:43:30.685Z,1.60
2022-09-02T18:46:01.947Z,1.83
2022-09-02T18:48:34.506Z,1.60
2022-09-02T18:51:09.941Z,1.63
2022-09-02T18:53:44.738Z,1.77
2022-09-02T18:56:14.352Z,1.70
2022-09-02T18:58:49.324Z,1.67
2022-09-02T19:01:23.493Z,1.87
2022-09-02T19:03:52.588Z,1.80
2022-09-02T19:06:22.851Z,1.63
2022-09-02T19:08:56.982Z,1.60
2022-09-02T19:11:27.807Z,1.70
2022-09-02T19:14:02.337Z,1.80
2022-09-02T19:16:34.483Z,1.87
2022-09-02T19:19:04.288Z,1.50
2022-09-02T19:21:40.333Z,1.63
2022-09-02T19:24:14.697Z,1.53
2022-09-02T19:26:44.630Z,1.63
2022-09-02T19:29:16.023Z,1.60
2022-09-02T19:31:46.412Z,1.60
2022-09-02T19:34:16.428Z,1.50
2022-09-02T19:36:48.252Z,1.73
2022-09-02T19:39:18.324Z,1.73
2022-09-02T19:41:48.507Z,1.97
2022-09-02T19:44:17.156Z,1.85
2022-09-02T19:47:42.170Z,1.70
2022-09-02T19:49:38.912Z,1.63
2022-09-02T19:52:07.681Z,2.30
2022-09-02T19:54:36.365Z,1.70
2022-09-02T19:57:05.125Z,1.73
2022-09-02T19:59:33.754Z,1.60
2022-09-02T20:02:04.059Z,1.90
2022-09-02T20:04:32.718Z,2.20
2022-09-02T20:07:01.636Z,2.03
2022-09-02T20:09:30.499Z,2.07
2022-09-02T20:12:00.600Z,2.73
2022-09-02T20:14:30.508Z,2.90
2022-09-02T20:17:03.188Z,2.70
2022-09-02T20:19:32.666Z,3.13
2022-09-02T20:22:01.667Z,1.93
2022-09-02T20:24:32.151Z,2.13
2022-09-02T20:27:14.733Z,2.67
2022-09-02T20:29:59.803Z,2.37
2022-09-02T20:32:43.942Z,2.70
2022-09-02T20:35:32.620Z,2.30
2022-09-02T20:38:18.769Z,2.77
2022-09-02T20:40:57.538Z,2.63
2022-09-02T20:44:06.129Z,2.70
2022-09-02T20:46:53.291Z,3.00
2022-09-02T20:49:36.915Z,2.40
2022-09-02T20:52:13.140Z,2.50
2022-09-02T20:54:54.779Z,2.00
2022-09-02T20:57:34.099Z,2.03
2022-09-02T21:00:08.942Z,2.03
2022-09-02T21:02:45.252Z,2.40
2022-09-02T21:05:22.736Z,2.17
2022-09-02T21:08:00.336Z,2.17
2022-09-02T21:10:35.793Z,2.05
2022-09-02T21:13:10.883Z,2.07
2022-09-02T21:15:46.276Z,2.10
2022-09-02T21:18:20.718Z,1.90
2022-09-02T21:20:55.629Z,2.57
2022-09-02T21:23:30.582Z,2.80
2022-09-02T21:26:04.899Z,2.00
2022-09-02T21:28:40.462Z,2.20
2022-09-02T21:31:18.483Z,2.87
2022-09-02T21:33:48.536Z,2.03
2022-09-02T21:36:31.465Z,2.13
2022-09-02T21:39:09.302Z,1.80
2022-09-02T21:41:43.080Z,2.33
2022-09-02T21:44:22.197Z,2.57
2022-09-02T21:47:00.917Z,1.97
2022-09-02T21:49:44.358Z,2.53
2022-09-02T21:52:26.103Z,2.47
2022-09-02T21:55:09.286Z,2.57
2022-09-02T21:57:56.543Z,2.53
2022-09-02T22:00:25.883Z,2.30
2022-09-02T22:03:03.561Z,2.67
2022-09-02T22:05:48.099Z,2.43
2022-09-02T22:08:29.504Z,2.13
2022-09-02T22:11:08.193Z,2.50
2022-09-02T22:13:41.401Z,2.67
2022-09-02T22:16:21.271Z,2.40
2022-09-02T22:18:59.460Z,2.37
2022-09-02T22:21:39.301Z,2.43
2022-09-02T22:24:09.133Z,2.40
2022-09-02T22:26:41.146Z,2.67
2022-09-02T22:29:19.562Z,2.93
2022-09-02T22:31:55.215Z,3.17
2022-09-02T22:34:26.165Z,2.90
2022-09-02T22:37:00.476Z,2.60
2022-09-02T22:39:41.298Z,2.80
2022-09-02T22:42:20.703Z,2.50
2022-09-02T22:45:14.039Z,2.37
2022-09-02T22:48:09.985Z,2.50
2022-09-02T22:51:01.739Z,2.37
2022-09-02T22:53:31.052Z,3.70
2022-09-02T22:56:02.491Z,2.20
2022-09-02T22:58:57.337Z,2.57
2022-09-02T23:04:13.057Z,2.70
2022-09-02T23:06:43.317Z,2.93
2022-09-02T23:09:14.371Z,2.80
2022-09-02T23:11:55.605Z,2.87
2022-09-02T23:14:34.466Z,2.87
2022-09-02T23:17:22.792Z,2.53
2022-09-02T23:20:05.940Z,2.40
2022-09-02T23:22:53.243Z,2.90
2022-09-02T23:25:37.209Z,2.37
2022-09-02T23:28:14.876Z,2.47
2022-09-02T23:31:00.663Z,2.27
2022-09-02T23:33:41.727Z,2.57
2022-09-02T23:36:16.919Z,2.33
2022-09-02T23:39:04.361Z,2.50
2022-09-02T23:41:35.695Z,2.63
2022-09-02T23:44:12.295Z,2.40
2022-09-02T23:46:53.774Z,2.47
2022-09-02T23:49:34.798Z,2.20
2022-09-02T23:52:14.218Z,2.17
2022-09-02T23:54:58.861Z,2.17
2022-09-02T23:57:43.023Z,2.90
